createdAt,value
2023-03-19T00:04:42.713Z,45.4
2023-03-19T00:08:53.699Z,27.2
2023-03-19T00:10:57.544Z,34.4
2023-03-19T00:13:01.403Z,32.6
2023-03-19T00:15:05.285Z,34.2
2023-03-19T00:19:12.995Z,37.6
2023-03-19T00:21:20.148Z,34.3
2023-03-19T00:23:24.006Z,32.7
2023-03-19T00:27:31.722Z,39.5
2023-03-19T00:29:35.580Z,33.7
2023-03-19T00:33:43.301Z,30.6
2023-03-19T00:35:50.425Z,47
2023-03-19T00:37:54.296Z,39.1
2023-03-19T00:39:58.145Z,36.5
2023-03-19T00:42:02.021Z,39.7
2023-03-19T00:44:05.881Z,43.6
2023-03-19T00:46:09.788Z,38.5
2023-03-19T00:48:13.603Z,41.8
2023-03-19T00:50:20.744Z,44.6
2023-03-19T00:52:24.584Z,45.9
2023-03-19T00:54:28.439Z,46.7
2023-03-19T00:57:35.876Z,48.2
2023-03-19T00:59:39.723Z,38.5
2023-03-19T01:01:43.671Z,61.6
2023-03-19T01:03:50.713Z,54.3
2023-03-19T01:05:54.565Z,50.9
2023-03-19T01:07:58.408Z,30.9
2023-03-19T01:10:02.266Z,30.1
2023-03-19T01:12:06.205Z,33.8
2023-03-19T01:14:09.973Z,31.6
2023-03-19T01:16:13.847Z,34.9
2023-03-19T01:18:20.921Z,38.2
2023-03-19T01:20:24.799Z,29.6
2023-03-19T01:24:32.485Z,40.4
2023-03-19T01:26:36.328Z,38.9
2023-03-19T01:28:40.183Z,37.4
2023-03-19T01:30:44.067Z,32.7
2023-03-19T01:32:51.221Z,27.7
2023-03-19T01:34:55.030Z,28.9
2023-03-19T01:36:58.903Z,34.4
2023-03-19T01:39:02.756Z,30.6
2023-03-19T01:41:06.607Z,30.5
2023-03-19T01:43:10.451Z,32.4
2023-03-19T01:45:14.325Z,32.2
2023-03-19T01:47:21.399Z,39.6
2023-03-19T01:49:25.247Z,38.1
2023-03-19T01:51:29.250Z,32
2023-03-19T01:52:32.686Z,42.7
2023-03-19T01:54:36.573Z,28.5
2023-03-19T01:56:40.389Z,30
2023-03-19T01:58:44.253Z,30.8
2023-03-19T02:00:51.340Z,44.8
2023-03-19T02:07:02.891Z,41.8
2023-03-19T02:09:06.753Z,38.5
2023-03-19T02:11:10.628Z,44.2
2023-03-19T02:13:14.489Z,34.9
2023-03-19T02:15:21.570Z,43.2
2023-03-19T02:17:25.409Z,35.5
2023-03-19T02:19:29.265Z,30.9
2023-03-19T02:21:33.118Z,37.3
2023-03-19T02:23:36.958Z,36.3
2023-03-19T02:25:40.821Z,36.9
2023-03-19T02:27:44.690Z,38.3
2023-03-19T02:29:51.750Z,52.7
2023-03-19T02:31:55.686Z,38.8
2023-03-19T02:33:59.493Z,38.5
2023-03-19T02:36:03.408Z,35.4
2023-03-19T02:38:07.186Z,31
2023-03-19T02:40:10.992Z,30.3
2023-03-19T02:42:14.848Z,30
2023-03-19T02:44:21.968Z,34.5
2023-03-19T02:46:25.871Z,34.7
2023-03-19T02:48:29.655Z,31.2
2023-03-19T02:55:01.889Z,35.9
2023-03-19T02:59:12.866Z,31.8
2023-03-19T03:03:20.572Z,33
2023-03-19T03:05:24.436Z,33
2023-03-19T03:07:28.275Z,31.9
2023-03-19T03:11:39.247Z,38.2
2023-03-19T03:13:43.101Z,32.6
2023-03-19T03:15:46.929Z,33.1
2023-03-19T03:17:50.785Z,30.9
2023-03-19T03:19:54.658Z,31.2
2023-03-19T03:21:58.458Z,30
2023-03-19T03:24:02.310Z,38.2
2023-03-19T03:26:09.514Z,39.6
2023-03-19T03:28:13.255Z,36.6
2023-03-19T03:30:17.151Z,39.9
2023-03-19T03:32:20.973Z,39.4
2023-03-19T03:34:24.815Z,38.5
2023-03-19T03:36:28.671Z,38.1
2023-03-19T03:40:39.666Z,41.6
2023-03-19T03:42:43.504Z,42.8
2023-03-19T03:45:50.981Z,52.5
2023-03-19T03:47:54.783Z,43.9
2023-03-19T03:49:58.623Z,38.3
2023-03-19T03:52:02.437Z,34.2
2023-03-19T03:58:17.264Z,34.5
2023-03-19T04:02:25.029Z,30.6
2023-03-19T04:04:28.790Z,28
2023-03-19T04:08:39.768Z,32.2
2023-03-19T04:10:43.624Z,34.5
2023-03-19T04:12:47.474Z,32.8
2023-03-19T04:14:51.302Z,35.3
2023-03-19T04:16:55.202Z,38.4
2023-03-19T04:19:00.649Z,36.7
2023-03-19T04:21:04.458Z,41.9
2023-03-19T04:23:11.540Z,54
2023-03-19T04:27:19.228Z,32.5
2023-03-19T04:33:30.751Z,38.3
2023-03-19T04:35:34.638Z,38.6
2023-03-19T04:37:41.704Z,41.7
2023-03-19T04:39:45.553Z,44.3
2023-03-19T04:41:49.403Z,44.2
2023-03-19T04:42:53.001Z,51.7
2023-03-19T04:44:56.783Z,45
2023-03-19T04:47:00.624Z,42.3
2023-03-19T04:49:04.488Z,45.1
2023-03-19T04:55:19.567Z,51.1
2023-03-19T04:57:23.400Z,38
2023-03-19T04:59:27.241Z,30.6
2023-03-19T05:01:31.154Z,34.8
2023-03-19T05:03:34.962Z,32.7
2023-03-19T05:07:45.877Z,40.8
2023-03-19T05:09:49.737Z,35.6
2023-03-19T05:13:57.387Z,36.7
2023-03-19T05:16:01.240Z,34.4
2023-03-19T05:18:05.068Z,35
2023-03-19T05:20:12.191Z,41.8
2023-03-19T05:22:16.030Z,65.7
2023-03-19T05:24:19.848Z,51.8
2023-03-19T05:26:23.701Z,48.6
2023-03-19T05:28:27.534Z,48.9
2023-03-19T05:30:31.596Z,45.3
2023-03-19T05:32:35.267Z,43
2023-03-19T05:34:42.343Z,48.8
2023-03-19T05:36:46.164Z,40.6
2023-03-19T05:38:49.999Z,45.9
2023-03-19T05:39:53.568Z,51.1
2023-03-19T05:41:57.400Z,47.5
2023-03-19T05:44:01.237Z,54.7
2023-03-19T05:46:05.141Z,51.7
2023-03-19T05:48:12.180Z,56.9
2023-03-19T05:50:16.015Z,54.1
2023-03-19T05:52:19.835Z,50.5
2023-03-19T05:54:23.662Z,49.7
2023-03-19T05:56:27.531Z,50.4
2023-03-19T05:58:31.340Z,48.7
2023-03-19T06:00:35.522Z,51.9
2023-03-19T06:02:42.351Z,61.9
2023-03-19T06:06:50.010Z,50.8
2023-03-19T06:10:57.659Z,53.6
2023-03-19T06:13:01.534Z,48.1
2023-03-19T06:15:05.339Z,55.6
2023-03-19T06:17:12.418Z,62
2023-03-19T06:21:20.118Z,63.5
2023-03-19T06:23:23.941Z,55.3
2023-03-19T06:25:27.774Z,66.2
2023-03-19T06:27:31.634Z,64.7
2023-03-19T06:29:35.466Z,57.5
2023-03-19T06:31:42.627Z,62.8
2023-03-19T06:33:46.418Z,61
2023-03-19T06:35:50.345Z,65.6
2023-03-19T06:40:13.432Z,56.2
2023-03-19T06:44:24.392Z,69.4
2023-03-19T06:46:28.205Z,68.2
2023-03-19T06:54:43.601Z,64.1
2023-03-19T07:00:58.465Z,65
2023-03-19T07:07:09.966Z,64.8
2023-03-19T07:11:17.658Z,59
2023-03-19T07:15:28.611Z,48.5
2023-03-19T07:17:32.465Z,44
2023-03-19T07:21:40.212Z,55.3
2023-03-19T07:25:47.862Z,48.2
2023-03-19T07:27:56.176Z,53.6
2023-03-19T07:29:58.862Z,44.8
2023-03-19T07:32:02.731Z,49.5
2023-03-19T07:35:10.105Z,47.8
2023-03-19T07:37:13.941Z,47
2023-03-19T07:39:17.772Z,51.8
2023-03-19T07:41:24.914Z,65.1
2023-03-19T07:43:28.782Z,45.4
2023-03-19T07:45:32.659Z,44.6
2023-03-19T07:47:36.527Z,52.7
2023-03-19T07:49:40.346Z,44.6
2023-03-19T07:51:44.208Z,43.8
2023-03-19T07:53:48.084Z,42
2023-03-19T07:57:59.050Z,47.3
2023-03-19T08:10:25.482Z,42.4
2023-03-19T08:12:29.358Z,41.6
2023-03-19T08:14:33.160Z,37.3
2023-03-19T08:16:37.077Z,37.5
2023-03-19T08:18:40.994Z,41.6
2023-03-19T08:22:48.617Z,36.4
2023-03-19T08:24:55.735Z,48.2
2023-03-19T08:26:59.607Z,54.2
2023-03-19T08:30:07.047Z,56.3
2023-03-19T08:32:10.926Z,54.7
2023-03-19T08:34:14.752Z,47.2
2023-03-19T08:36:18.617Z,48.4
2023-03-19T08:40:29.610Z,55.6
2023-03-19T08:42:33.486Z,53
2023-03-19T08:44:37.333Z,44
2023-03-19T08:46:41.256Z,48.1
2023-03-19T08:48:45.112Z,48.2
2023-03-19T08:50:48.894Z,45.1
2023-03-19T08:52:56.056Z,48.8
2023-03-19T08:54:59.897Z,50
2023-03-19T08:57:03.769Z,46.3
2023-03-19T08:59:07.645Z,45
2023-03-19T09:01:11.483Z,47.3
2023-03-19T09:03:15.370Z,44.5
2023-03-19T09:05:19.210Z,59.3
2023-03-19T09:07:26.335Z,48.7
2023-03-19T09:09:30.238Z,44.1
2023-03-19T09:11:34.240Z,46.7
2023-03-19T09:13:37.921Z,49.8
2023-03-19T09:19:49.480Z,46.6
2023-03-19T09:21:56.639Z,60.2
2023-03-19T09:24:00.467Z,54.7
2023-03-19T09:26:04.318Z,54.1
2023-03-19T09:27:08.010Z,60.3
2023-03-19T09:33:19.500Z,46.3
2023-03-19T09:35:26.626Z,42.3
2023-03-19T09:41:38.197Z,46
2023-03-19T09:43:42.088Z,39
2023-03-19T09:47:49.794Z,52.8
2023-03-19T09:54:04.665Z,58.5
2023-03-19T09:56:08.534Z,61.7
2023-03-19T09:58:12.347Z,52.3
2023-03-19T10:00:16.223Z,43.1
2023-03-19T10:02:20.066Z,41.7
2023-03-19T10:04:27.208Z,41
2023-03-19T10:06:31.059Z,39.4
2023-03-19T10:08:34.930Z,40.8
2023-03-19T10:10:38.810Z,41.2
2023-03-19T10:12:42.641Z,40.5
2023-03-19T10:16:51.979Z,43.7
2023-03-19T10:18:59.487Z,43.4
2023-03-19T10:21:02.927Z,40
2023-03-19T10:23:06.743Z,38.4
2023-03-19T10:25:31.713Z,40.6
2023-03-19T10:35:54.147Z,36.3
2023-03-19T10:37:57.996Z,45.7
2023-03-19T10:40:01.892Z,43.7
2023-03-19T10:42:05.653Z,37.7
2023-03-19T10:44:09.493Z,40.8
2023-03-19T10:46:16.611Z,42.3
2023-03-19T10:50:24.332Z,36.6
2023-03-19T10:52:28.172Z,35.3
2023-03-19T10:54:32.040Z,34.9
2023-03-19T10:56:35.849Z,40.7
2023-03-19T10:58:39.679Z,32.1
2023-03-19T11:00:46.860Z,36.5
2023-03-19T11:02:50.661Z,35.8
2023-03-19T11:04:54.493Z,39.7
2023-03-19T11:06:58.342Z,40.3
2023-03-19T11:09:02.172Z,30.9
2023-03-19T11:13:09.783Z,32.7
2023-03-19T11:17:20.746Z,33.3
2023-03-19T11:20:28.152Z,31.8
2023-03-19T11:22:31.981Z,29.2
2023-03-19T11:24:35.831Z,29.4
2023-03-19T11:26:39.653Z,32
2023-03-19T11:30:50.616Z,30.8
2023-03-19T11:37:02.106Z,32.2
2023-03-19T11:41:09.800Z,32.2
2023-03-19T11:45:20.690Z,28.9
2023-03-19T11:47:27.517Z,31.4
2023-03-19T11:49:28.352Z,33.6
2023-03-19T11:51:32.201Z,38.1
2023-03-19T11:53:36.024Z,36.7
2023-03-19T11:55:39.816Z,32.7
2023-03-19T11:57:46.942Z,31
2023-03-19T11:59:50.756Z,39
2023-03-19T12:01:54.623Z,39.2
2023-03-19T12:03:58.489Z,37.7
2023-03-19T12:06:02.282Z,40.5
2023-03-19T12:08:06.135Z,40.7
2023-03-19T12:10:09.972Z,41.5
2023-03-19T12:12:17.069Z,42.9
2023-03-19T12:14:20.890Z,38.4
2023-03-19T12:17:30.260Z,46.4
2023-03-19T12:19:32.131Z,39
2023-03-19T12:23:39.765Z,36.9
2023-03-19T12:27:50.757Z,49.1
2023-03-19T12:29:54.583Z,36.8
2023-03-19T12:31:58.380Z,37
2023-03-19T12:34:02.241Z,36.6
2023-03-19T12:36:06.811Z,38.1
2023-03-19T12:38:09.841Z,41.9
2023-03-19T12:40:17.146Z,37.8
2023-03-19T12:42:20.841Z,41.2
2023-03-19T12:44:24.665Z,35.9
2023-03-19T12:46:28.555Z,38
2023-03-19T12:50:36.607Z,44.5
2023-03-19T12:52:40.025Z,35.8
2023-03-19T12:54:47.132Z,41.2
2023-03-19T12:56:50.980Z,35.6
2023-03-19T12:58:56.249Z,39
2023-03-19T13:00:58.663Z,40.4
2023-03-19T13:03:02.529Z,39
2023-03-19T13:05:06.437Z,43.5
2023-03-19T13:07:10.208Z,40.8
2023-03-19T13:09:17.307Z,40.8
2023-03-19T13:11:21.155Z,41.5
2023-03-19T13:13:24.985Z,46.7
2023-03-19T13:20:40.066Z,32.9
2023-03-19T13:28:58.649Z,37.8
2023-03-19T13:35:10.148Z,52
2023-03-19T13:39:21.078Z,43.5
2023-03-19T13:41:24.902Z,44.6
2023-03-19T13:43:29.254Z,59.4
2023-03-19T13:45:32.581Z,97.1
2023-03-19T13:47:36.448Z,62.6
2023-03-19T13:49:40.274Z,51.1
2023-03-19T13:57:58.928Z,39.7
2023-03-19T14:00:02.815Z,44
2023-03-19T14:06:17.637Z,73.7
2023-03-19T14:12:50.115Z,43.6
2023-03-19T14:16:57.818Z,39.7
2023-03-19T14:19:05.244Z,42.9
2023-03-19T14:21:12.824Z,37.5
2023-03-19T14:31:28.100Z,46.7
2023-03-19T14:35:39.157Z,62.2
2023-03-19T14:37:42.948Z,42.2
2023-03-19T14:39:46.775Z,46.3
2023-03-19T14:41:50.648Z,43.1
2023-03-19T14:43:54.490Z,39.1
2023-03-19T14:45:58.344Z,35.8
2023-03-19T14:48:05.484Z,44.1
2023-03-19T14:50:09.348Z,39
2023-03-19T14:52:13.191Z,37.7
2023-03-19T14:54:17.052Z,41.5
2023-03-19T14:56:20.858Z,40.7
2023-03-19T14:58:24.736Z,41.3
2023-03-19T15:00:28.562Z,37.9
2023-03-19T15:04:39.565Z,36.2
2023-03-19T15:13:58.457Z,33.1
2023-03-19T15:18:09.408Z,33.4
2023-03-19T15:22:17.104Z,32.9
2023-03-19T15:24:20.909Z,33.6
2023-03-19T15:26:24.772Z,34.4
2023-03-19T15:28:28.778Z,29.7
2023-03-19T15:30:50.537Z,31.6
2023-03-19T15:33:02.907Z,31.4
2023-03-19T15:34:43.604Z,32.9
2023-03-19T15:36:47.245Z,68
2023-03-19T15:38:51.067Z,55.5
2023-03-19T15:40:54.909Z,34.4
2023-03-19T15:42:58.758Z,66.3
2023-03-19T15:45:05.855Z,53.7
2023-03-19T15:47:09.705Z,59.6
2023-03-19T15:49:13.537Z,55.2
2023-03-19T15:51:17.381Z,61.9
2023-03-19T15:53:21.224Z,40.4
2023-03-19T15:55:25.087Z,37
2023-03-19T15:57:28.929Z,53.4
2023-03-19T15:59:36.075Z,39.3
2023-03-19T16:01:39.935Z,28.8
2023-03-19T16:08:55.032Z,31.8
2023-03-19T16:13:07.679Z,38.5
2023-03-19T16:17:15.334Z,38
2023-03-19T16:19:19.170Z,36
2023-03-19T16:27:37.811Z,59.8
2023-03-19T16:29:41.696Z,39.9
2023-03-19T16:31:45.536Z,39.8
2023-03-19T16:37:57.092Z,39.8
2023-03-19T16:40:01.040Z,39.6
2023-03-19T16:42:08.123Z,50.1
2023-03-19T16:44:11.955Z,44.8
2023-03-19T16:46:15.831Z,43.2
2023-03-19T16:48:19.664Z,39.8
2023-03-19T16:50:23.533Z,36.9
2023-03-19T16:52:27.393Z,38.4
2023-03-19T16:56:38.405Z,38.5
2023-03-19T16:58:42.256Z,39.1
2023-03-19T17:00:46.115Z,37.1
2023-03-19T17:01:49.764Z,39.5
2023-03-19T17:03:53.563Z,40.6
2023-03-19T17:05:57.405Z,40.3
2023-03-19T17:08:01.307Z,37.9
2023-03-19T17:10:08.429Z,54.4
2023-03-19T17:12:12.264Z,52.1
2023-03-19T17:14:16.150Z,49.8
2023-03-19T17:16:20.056Z,54.7
2023-03-19T17:18:23.860Z,49.5
2023-03-19T17:20:27.702Z,44.6
2023-03-19T17:22:31.566Z,48.5
2023-03-19T17:24:38.707Z,47.2
2023-03-19T17:26:42.581Z,40.5
2023-03-19T17:28:46.420Z,37.4
2023-03-19T17:30:50.306Z,41.9
2023-03-19T17:32:54.176Z,40
2023-03-19T17:34:58.025Z,40.2
2023-03-19T17:39:08.992Z,39.6
2023-03-19T17:45:20.600Z,35.3
2023-03-19T17:47:24.445Z,42.5
2023-03-19T17:49:28.307Z,45.7
2023-03-19T17:51:32.161Z,56.4
2023-03-19T17:53:39.292Z,43
2023-03-19T17:55:43.158Z,43.3
2023-03-19T17:57:47.034Z,42.4
2023-03-19T18:00:06.026Z,38
2023-03-19T18:02:09.877Z,42.7
2023-03-19T18:04:13.832Z,39.1
2023-03-19T18:06:21.005Z,41.7
2023-03-19T18:08:24.728Z,50.1
2023-03-19T18:10:28.577Z,47.8
2023-03-19T18:12:32.440Z,43.2
2023-03-19T18:14:36.300Z,43
2023-03-19T18:16:40.211Z,41.4
2023-03-19T18:18:43.997Z,41
2023-03-19T18:20:51.155Z,51
2023-03-19T18:22:55.034Z,62.3
2023-03-19T18:24:58.876Z,47.9
2023-03-19T18:27:02.737Z,51.7
2023-03-19T18:33:14.378Z,53.2
2023-03-19T18:35:21.466Z,55
2023-03-19T18:37:25.277Z,55.6
2023-03-19T18:39:29.125Z,54.1
2023-03-19T18:41:32.998Z,54.8
2023-03-19T18:47:44.527Z,53
2023-03-19T18:50:23.722Z,55.8
2023-03-19T18:52:02.712Z,49.3
2023-03-19T18:53:59.377Z,42.3
2023-03-19T18:55:02.953Z,52.7
2023-03-19T18:57:06.788Z,47.9
2023-03-19T19:01:14.564Z,44.1
2023-03-19T19:05:25.488Z,47.7
2023-03-19T19:07:29.335Z,52.2
2023-03-19T19:09:33.217Z,43.8
2023-03-19T19:11:37.734Z,45.2
2023-03-19T19:13:55.146Z,56.4
2023-03-19T19:15:44.784Z,55.2
2023-03-19T19:19:55.776Z,53.5
2023-03-19T19:21:59.619Z,53.6
2023-03-19T19:32:22.131Z,49.6
2023-03-19T19:38:33.763Z,48.6
2023-03-19T19:40:37.796Z,54.7
2023-03-19T19:42:41.447Z,52.2
2023-03-19T19:44:45.344Z,48.9
2023-03-19T19:46:52.434Z,57.5
2023-03-19T19:48:56.286Z,66
2023-03-19T19:51:00.160Z,57.2
2023-03-19T19:52:03.721Z,54.8
2023-03-19T19:54:07.566Z,58.3
2023-03-19T19:56:11.408Z,58.8
2023-03-19T19:58:15.264Z,59.8
2023-03-19T20:00:22.418Z,59.8
2023-03-19T20:02:26.270Z,57.9
2023-03-19T20:04:30.710Z,52.7
2023-03-19T20:06:33.950Z,61.9
2023-03-19T20:08:37.809Z,63.3
2023-03-19T20:10:41.650Z,59.9
2023-03-19T20:12:45.492Z,59.7
2023-03-19T20:14:52.641Z,70.8
2023-03-19T20:16:56.624Z,79.7
2023-03-19T20:19:00.318Z,57.8
2023-03-19T20:21:04.354Z,60.8
2023-03-19T20:23:08.021Z,61.2
2023-03-19T20:25:11.893Z,69.7
2023-03-19T20:27:15.732Z,61.4
2023-03-19T20:29:22.852Z,56.6
2023-03-19T20:31:26.764Z,55.9
2023-03-19T20:33:30.542Z,60.2
2023-03-19T20:35:34.746Z,51.4
2023-03-19T20:37:38.253Z,55.6
2023-03-19T20:39:42.202Z,49.8
2023-03-19T20:41:46.000Z,57.4
2023-03-19T20:43:53.100Z,50
2023-03-19T20:45:56.956Z,57.8
2023-03-19T20:48:00.815Z,59
2023-03-19T20:49:04.356Z,61.1
2023-03-19T20:51:08.282Z,54.1
2023-03-19T20:55:15.919Z,66.6
2023-03-19T20:57:23.045Z,58.7
2023-03-19T20:59:26.885Z,67.2
2023-03-19T21:01:30.798Z,71.4
2023-03-19T21:03:34.584Z,72.4
2023-03-19T21:05:38.449Z,73.6
2023-03-19T21:07:42.318Z,74.3
2023-03-19T21:09:46.118Z,72.7
2023-03-19T21:11:53.270Z,58.7
2023-03-19T21:13:57.087Z,56.5
2023-03-19T21:16:00.941Z,67.3
2023-03-19T21:18:04.753Z,67.9
2023-03-19T21:20:08.627Z,59.9
2023-03-19T21:22:12.488Z,56.3
2023-03-19T21:24:16.342Z,59.5
2023-03-19T21:26:23.436Z,61.3
2023-03-19T21:28:27.276Z,57.5
2023-03-19T21:30:31.138Z,64.2
2023-03-19T21:32:35.058Z,58
2023-03-19T21:34:38.795Z,55.7
2023-03-19T21:36:42.682Z,51.2
2023-03-19T21:40:53.980Z,61.5
2023-03-19T21:42:57.521Z,51
2023-03-19T21:47:26.157Z,59.1
2023-03-19T21:49:30.036Z,54.1
2023-03-19T21:51:33.836Z,50.8
2023-03-19T21:53:40.998Z,55.9
2023-03-19T21:55:44.826Z,56
2023-03-19T21:57:48.679Z,59.6
2023-03-19T21:59:52.540Z,53
2023-03-19T22:01:56.473Z,58.2
2023-03-19T22:04:00.279Z,65
2023-03-19T22:06:04.065Z,61.4
2023-03-19T22:08:11.175Z,61.3
2023-03-19T22:10:16.664Z,58.3
2023-03-19T22:12:20.575Z,66
2023-03-19T22:14:24.311Z,62.5
2023-03-19T22:16:28.165Z,59.4
2023-03-19T22:18:32.039Z,64.5
2023-03-19T22:20:35.843Z,64.2
2023-03-19T22:24:46.833Z,62.1
2023-03-19T22:26:50.839Z,70.3
2023-03-19T22:28:54.513Z,57.6
2023-03-19T22:30:58.360Z,54.7
2023-03-19T22:33:02.324Z,68.6
2023-03-19T22:35:06.030Z,61.3
2023-03-19T22:37:13.139Z,66.8
2023-03-19T22:39:16.963Z,64.1
2023-03-19T22:41:20.842Z,61.5
2023-03-19T22:48:35.903Z,56.6
2023-03-19T22:50:43.000Z,50.5
2023-03-19T22:52:46.846Z,54.1
2023-03-19T22:56:54.639Z,43.1
2023-03-19T23:03:06.058Z,49
2023-03-19T23:05:13.157Z,51.8
2023-03-19T23:07:16.987Z,42.5
2023-03-19T23:09:20.824Z,41.9
2023-03-19T23:11:24.763Z,51.8
2023-03-19T23:13:28.538Z,46.4
2023-03-19T23:15:32.562Z,44.7
2023-03-19T23:17:36.235Z,42.1
2023-03-19T23:19:43.324Z,39.6
2023-03-19T23:21:47.170Z,37.4
2023-03-19T23:23:51.008Z,37.7
2023-03-19T23:25:54.880Z,37
2023-03-19T23:27:58.694Z,36.7
2023-03-19T23:30:02.660Z,35.1
2023-03-19T23:32:06.393Z,47.2
2023-03-19T23:34:13.519Z,38.9
2023-03-19T23:36:17.367Z,35.3
2023-03-19T23:38:21.168Z,35.7
2023-03-19T23:45:36.839Z,34.5
2023-03-19T23:49:47.196Z,38.9
2023-03-19T23:51:51.038Z,41.2
2023-03-19T23:53:54.870Z,39.5
